createdAt,value
2018-05-08T00:02:20.004Z,49.88
2018-05-08T00:04:48.178Z,50.16
2018-05-08T00:07:16.360Z,50.02
2018-05-08T00:09:44.552Z,50.18
2018-05-08T00:12:12.745Z,49.86
2018-05-08T00:14:40.906Z,49.99
2018-05-08T00:17:09.091Z,50.40
2018-05-08T00:19:37.266Z,50.09
2018-05-08T00:22:05.451Z,49.80
2018-05-08T00:24:33.604Z,49.54
2018-05-08T00:27:01.790Z,50.04
2018-05-08T00:29:29.958Z,49.87
2018-05-08T00:31:58.152Z,50.27
2018-05-08T00:34:26.313Z,50.29
2018-05-08T00:36:54.495Z,50.74
2018-05-08T00:39:22.653Z,50.71
2018-05-08T00:41:50.859Z,50.50
2018-05-08T00:44:19.065Z,50.53
2018-05-08T00:46:47.221Z,50.64
2018-05-08T00:49:15.821Z,51.24
2018-05-08T00:51:43.992Z,51.39
2018-05-08T00:54:12.178Z,51.40
2018-05-08T00:56:40.382Z,50.94
2018-05-08T00:59:08.539Z,50.80
2018-05-08T01:01:36.731Z,50.27
2018-05-08T01:04:04.899Z,50.41
2018-05-08T01:06:33.119Z,51.12
2018-05-08T01:09:01.306Z,51.37
2018-05-08T01:11:29.520Z,51.39
2018-05-08T01:13:57.678Z,50.46
2018-05-08T01:16:25.895Z,50.50
2018-05-08T01:18:54.080Z,50.40
2018-05-08T01:21:22.252Z,51.11
2018-05-08T01:23:50.452Z,51.27
2018-05-08T01:26:18.669Z,50.84
2018-05-08T01:28:46.846Z,50.40
2018-05-08T01:31:15.040Z,51.42
2018-05-08T01:33:43.207Z,51.30
2018-05-08T01:36:11.407Z,51.11
2018-05-08T01:38:39.540Z,50.94
2018-05-08T01:41:07.730Z,50.82
2018-05-08T01:43:35.919Z,51.09
2018-05-08T01:46:04.099Z,49.94
2018-05-08T01:48:32.272Z,50.96
2018-05-08T01:51:00.454Z,50.87
2018-05-08T01:53:28.608Z,50.09
2018-05-08T01:55:56.796Z,49.95
2018-05-08T01:58:24.945Z,50.06
2018-05-08T02:00:53.103Z,49.91
2018-05-08T02:03:21.272Z,49.95
2018-05-08T02:05:49.425Z,50.39
2018-05-08T02:08:17.614Z,49.99
2018-05-08T02:10:45.815Z,49.29
2018-05-08T02:13:13.982Z,49.46
2018-05-08T02:15:42.163Z,50.57
2018-05-08T02:18:10.328Z,50.34
2018-05-08T02:20:38.542Z,50.23
2018-05-08T02:23:06.688Z,49.41
2018-05-08T02:25:34.857Z,48.94
2018-05-08T02:28:03.045Z,49.28
2018-05-08T02:30:31.226Z,48.59
2018-05-08T02:32:59.400Z,49.36
2018-05-08T02:35:27.580Z,50.19
2018-05-08T02:37:55.774Z,49.50
2018-05-08T02:40:23.961Z,49.61
2018-05-08T02:42:52.151Z,49.73
2018-05-08T02:45:20.346Z,48.97
2018-05-08T02:47:48.529Z,48.78
2018-05-08T02:50:16.720Z,48.17
2018-05-08T02:52:44.855Z,48.02
2018-05-08T02:55:13.020Z,48.73
2018-05-08T02:57:41.213Z,48.78
2018-05-08T03:00:09.386Z,49.47
2018-05-08T03:02:37.560Z,49.29
2018-05-08T03:05:05.733Z,49.38
2018-05-08T03:07:33.898Z,49.57
2018-05-08T03:10:02.094Z,48.88
2018-05-08T03:12:30.269Z,49.71
2018-05-08T03:14:58.476Z,49.36
2018-05-08T03:17:26.637Z,49.43
2018-05-08T03:19:54.785Z,48.82
2018-05-08T03:22:23.038Z,49.32
2018-05-08T03:24:51.123Z,49.35
2018-05-08T03:27:19.286Z,49.43
2018-05-08T03:29:47.473Z,49.40
2018-05-08T03:32:15.703Z,49.15
2018-05-08T03:34:43.889Z,49.35
2018-05-08T03:37:12.089Z,50.01
2018-05-08T03:39:40.285Z,50.08
2018-05-08T03:42:08.469Z,50.18
2018-05-08T03:44:36.683Z,50.13
2018-05-08T03:47:04.798Z,50.13
2018-05-08T03:49:32.985Z,50.63
2018-05-08T03:52:01.134Z,50.64
2018-05-08T03:54:29.305Z,49.94
2018-05-08T03:56:57.490Z,50.88
2018-05-08T03:59:25.688Z,50.96
2018-05-08T04:02:30.467Z,50.89
2018-05-08T04:05:46.441Z,50.81
2018-05-08T04:08:31.117Z,50.96
2018-05-08T04:10:59.285Z,51.26
2018-05-08T04:13:27.468Z,51.39
2018-05-08T04:15:55.659Z,51.68
2018-05-08T04:18:24.955Z,52.11
2018-05-08T04:20:53.147Z,52.51
2018-05-08T04:23:21.330Z,52.81
2018-05-08T04:25:49.481Z,52.46
2018-05-08T04:28:17.688Z,52.76
2018-05-08T04:30:45.844Z,53.17
2018-05-08T04:33:14.007Z,53.11
2018-05-08T04:35:42.193Z,53.13
2018-05-08T04:38:10.355Z,53.52
2018-05-08T04:40:38.542Z,53.53
2018-05-08T04:43:06.742Z,53.58
2018-05-08T04:45:34.929Z,53.04
2018-05-08T04:48:03.147Z,53.14
2018-05-08T04:50:31.335Z,52.93
2018-05-08T04:52:59.492Z,52.89
2018-05-08T04:55:27.688Z,52.71
2018-05-08T04:57:55.863Z,52.91
2018-05-08T05:00:24.022Z,52.55
2018-05-08T05:02:52.206Z,52.72
2018-05-08T05:05:20.379Z,52.51
2018-05-08T05:07:48.554Z,52.78
2018-05-08T05:10:16.733Z,52.57
2018-05-08T05:12:44.916Z,52.29
2018-05-08T05:15:13.108Z,52.62
2018-05-08T05:17:41.251Z,52.03
2018-05-08T05:20:09.496Z,51.84
2018-05-08T05:22:37.663Z,51.37
2018-05-08T05:25:05.837Z,50.87
2018-05-08T05:27:34.039Z,50.74
2018-05-08T05:30:02.212Z,51.06
2018-05-08T05:32:30.394Z,50.59
2018-05-08T05:34:58.576Z,50.65
2018-05-08T05:37:26.796Z,51.54
2018-05-08T05:39:54.969Z,52.45
2018-05-08T05:42:23.136Z,50.19
2018-05-08T05:44:51.322Z,50.74
2018-05-08T05:47:19.485Z,49.82
2018-05-08T05:49:47.646Z,49.39
2018-05-08T05:52:15.812Z,49.09
2018-05-08T05:54:44.003Z,48.66
2018-05-08T05:57:12.167Z,48.64
2018-05-08T05:59:40.378Z,48.19
2018-05-08T06:02:08.546Z,46.71
2018-05-08T06:04:36.724Z,46.53
2018-05-08T06:07:04.911Z,45.76
2018-05-08T06:09:33.120Z,44.91
2018-05-08T06:12:01.381Z,44.74
2018-05-08T06:14:29.484Z,44.93
2018-05-08T06:16:57.705Z,43.27
2018-05-08T06:19:25.917Z,38.85
2018-05-08T06:21:54.252Z,35.40
2018-05-08T06:24:22.434Z,35.11
2018-05-08T06:26:50.611Z,33.19
2018-05-08T06:29:18.824Z,29.05
2018-05-08T06:31:47.020Z,26.19
2018-05-08T06:34:15.252Z,23.64
2018-05-08T06:36:43.425Z,21.95
2018-05-08T06:39:11.778Z,20.13
2018-05-08T06:41:39.857Z,19.27
2018-05-08T06:44:08.018Z,18.45
2018-05-08T06:46:36.216Z,17.06
2018-05-08T06:49:04.397Z,16.06
2018-05-08T06:51:32.597Z,15.34
2018-05-08T06:54:00.745Z,14.56
2018-05-08T06:56:28.932Z,14.43
2018-05-08T06:58:57.128Z,14.25
2018-05-08T07:01:25.335Z,13.82
2018-05-08T07:03:55.566Z,13.82
2018-05-08T07:06:29.203Z,13.29
2018-05-08T07:08:57.420Z,14.06
2018-05-08T07:11:25.611Z,13.61
2018-05-08T07:13:53.813Z,13.28
2018-05-08T07:16:21.997Z,13.74
2018-05-08T07:18:50.180Z,13.23
2018-05-08T07:21:18.376Z,13.35
2018-05-08T07:23:46.531Z,12.94
2018-05-08T07:26:14.726Z,13.09
2018-05-08T07:32:15.046Z,12.70
2018-05-08T07:34:43.242Z,12.52
2018-05-08T07:37:11.414Z,12.51
2018-05-08T07:39:39.587Z,12.74
2018-05-08T07:42:07.788Z,12.65
2018-05-08T07:44:35.967Z,12.94
2018-05-08T07:47:04.136Z,12.83
2018-05-08T07:49:32.396Z,12.37
2018-05-08T07:52:00.579Z,12.46
2018-05-08T07:54:37.721Z,12.84
2018-05-08T07:57:05.977Z,12.66
2018-05-08T07:59:34.297Z,12.97
2018-05-08T08:02:02.505Z,12.63
2018-05-08T08:04:30.794Z,12.37
2018-05-08T08:06:58.928Z,12.13
2018-05-08T08:09:27.110Z,11.40
2018-05-08T08:11:55.286Z,12.28
2018-05-08T08:14:23.553Z,12.40
2018-05-08T08:16:51.931Z,11.98
2018-05-08T08:19:20.141Z,11.72
2018-05-08T08:21:48.390Z,11.41
2018-05-08T08:24:16.557Z,11.46
2018-05-08T08:26:44.759Z,11.24
2018-05-08T08:29:12.958Z,11.35
2018-05-08T08:31:41.213Z,11.18
2018-05-08T08:34:09.378Z,11.40
2018-05-08T08:36:37.642Z,11.83
2018-05-08T08:39:06.048Z,10.87
2018-05-08T08:41:34.247Z,11.29
2018-05-08T08:44:02.456Z,11.17
2018-05-08T08:46:30.664Z,11.92
2018-05-08T08:48:58.862Z,11.44
2018-05-08T08:51:27.084Z,11.61
2018-05-08T08:53:55.266Z,11.51
2018-05-08T08:56:23.449Z,10.66
2018-05-08T08:58:51.627Z,10.76
2018-05-08T09:01:21.311Z,10.20
2018-05-08T09:03:49.587Z,10.78
2018-05-08T09:06:17.756Z,10.84
2018-05-08T09:08:45.933Z,10.40
2018-05-08T09:11:14.249Z,10.81
2018-05-08T09:13:42.347Z,10.60
2018-05-08T09:16:10.538Z,10.63
2018-05-08T09:18:38.773Z,10.96
2018-05-08T09:21:06.931Z,10.93
2018-05-08T09:23:35.193Z,10.42
2018-05-08T09:26:03.382Z,9.07
2018-05-08T09:28:31.625Z,9.51
2018-05-08T09:30:59.836Z,10.22
2018-05-08T09:33:28.002Z,9.56
2018-05-08T09:35:56.190Z,10.28
2018-05-08T09:38:24.387Z,9.34
2018-05-08T09:40:52.612Z,9.62
2018-05-08T09:43:20.784Z,10.52
2018-05-08T09:45:49.979Z,10.40
2018-05-08T09:48:18.167Z,10.18
2018-05-08T09:50:46.333Z,9.67
2018-05-08T09:53:14.507Z,9.81
2018-05-08T09:55:42.704Z,9.99
2018-05-08T09:58:10.852Z,9.46
2018-05-08T10:00:38.995Z,10.14
2018-05-08T10:03:07.207Z,9.52
2018-05-08T10:05:35.362Z,9.55
2018-05-08T10:08:09.698Z,9.87
2018-05-08T10:10:37.853Z,9.50
2018-05-08T10:13:06.053Z,10.07
2018-05-08T10:15:34.172Z,9.50
2018-05-08T10:18:02.371Z,9.12
2018-05-08T10:20:30.571Z,9.31
2018-05-08T10:22:58.723Z,8.78
2018-05-08T10:25:26.889Z,9.47
2018-05-08T10:27:55.080Z,9.75
2018-05-08T10:30:23.239Z,10.66
2018-05-08T10:32:51.415Z,10.08
2018-05-08T10:35:19.620Z,9.37
2018-05-08T10:37:47.792Z,8.97
2018-05-08T10:40:15.965Z,9.80
2018-05-08T10:42:44.117Z,9.30
2018-05-08T10:45:12.310Z,9.74
2018-05-08T10:47:40.468Z,10.29
2018-05-08T10:50:08.638Z,8.76
2018-05-08T10:52:36.841Z,8.12
2018-05-08T10:55:05.001Z,8.42
2018-05-08T10:57:33.258Z,8.77
2018-05-08T11:00:01.561Z,9.03
2018-05-08T11:02:29.714Z,9.36
2018-05-08T11:04:57.896Z,9.57
2018-05-08T11:07:26.050Z,9.67
2018-05-08T11:09:54.281Z,8.75
2018-05-08T11:12:22.474Z,7.08
2018-05-08T11:14:50.680Z,8.17
2018-05-08T11:17:18.868Z,8.58
2018-05-08T11:19:47.150Z,8.89
2018-05-08T11:22:15.226Z,9.45
2018-05-08T11:24:43.484Z,8.90
2018-05-08T11:27:11.591Z,7.90
2018-05-08T11:29:39.743Z,9.89
2018-05-08T11:32:07.917Z,10.82
2018-05-08T11:34:36.155Z,8.58
2018-05-08T11:37:04.330Z,8.75
2018-05-08T11:39:32.514Z,8.64
2018-05-08T11:42:00.678Z,10.48
2018-05-08T11:44:28.863Z,8.89
2018-05-08T11:46:57.088Z,8.99
2018-05-08T11:49:25.281Z,9.32
2018-05-08T11:51:53.452Z,9.41
2018-05-08T11:54:21.676Z,10.13
2018-05-08T11:56:49.897Z,10.81
2018-05-08T11:59:18.045Z,11.26
2018-05-08T12:01:46.230Z,12.48
2018-05-08T12:04:14.525Z,12.61
2018-05-08T12:06:42.723Z,12.58
2018-05-08T12:09:10.979Z,12.34
2018-05-08T12:11:39.163Z,12.89
2018-05-08T12:14:07.344Z,13.85
2018-05-08T12:16:35.490Z,13.19
2018-05-08T12:19:03.680Z,12.97
2018-05-08T12:21:31.883Z,14.54
2018-05-08T12:24:00.090Z,15.07
2018-05-08T12:26:28.231Z,14.29
2018-05-08T12:28:56.459Z,14.35
2018-05-08T12:31:24.602Z,15.07
2018-05-08T12:33:52.814Z,15.70
2018-05-08T12:36:20.985Z,14.93
2018-05-08T12:38:49.253Z,14.44
2018-05-08T12:41:17.480Z,14.78
2018-05-08T12:43:45.706Z,15.17
2018-05-08T12:46:13.898Z,14.90
2018-05-08T12:48:42.135Z,15.92
2018-05-08T12:51:10.348Z,16.05
2018-05-08T12:53:38.520Z,16.16
2018-05-08T12:56:06.962Z,14.04
2018-05-08T12:58:35.159Z,16.64
2018-05-08T13:01:03.363Z,14.41
2018-05-08T13:03:31.541Z,14.67
2018-05-08T13:05:59.733Z,14.50
2018-05-08T13:08:27.925Z,13.77
2018-05-08T13:10:56.196Z,15.20
2018-05-08T13:13:24.286Z,13.55
2018-05-08T13:15:52.455Z,14.01
2018-05-08T13:18:20.762Z,14.19
2018-05-08T13:20:48.820Z,14.85
2018-05-08T13:23:17.079Z,13.58
2018-05-08T13:28:12.609Z,14.48
2018-05-08T13:30:40.885Z,15.13
2018-05-08T13:33:09.023Z,14.37
2018-05-08T13:35:37.183Z,14.22
2018-05-08T13:38:05.596Z,15.17
2018-05-08T13:40:33.789Z,14.82
2018-05-08T13:43:02.014Z,16.04
2018-05-08T13:45:30.264Z,16.08
2018-05-08T13:47:58.463Z,16.02
2018-05-08T13:50:26.781Z,15.42
2018-05-08T13:52:54.878Z,14.87
2018-05-08T13:55:25.192Z,15.25
2018-05-08T13:57:56.187Z,16.21
2018-05-08T14:00:24.449Z,16.90
2018-05-08T14:02:52.634Z,16.52
2018-05-08T14:05:20.790Z,16.49
2018-05-08T14:07:48.968Z,16.41
2018-05-08T14:10:17.164Z,16.38
2018-05-08T14:12:45.348Z,16.79
2018-05-08T14:15:13.529Z,16.83
2018-05-08T14:17:41.723Z,17.34
2018-05-08T14:20:09.913Z,17.14
2018-05-08T14:22:38.093Z,17.24
2018-05-08T14:25:06.270Z,17.97
2018-05-08T14:27:34.462Z,17.91
2018-05-08T14:30:02.665Z,19.10
2018-05-08T14:32:30.876Z,18.41
2018-05-08T14:34:59.043Z,17.46
2018-05-08T14:37:27.276Z,17.94
2018-05-08T14:39:55.469Z,18.40
2018-05-08T14:42:23.670Z,17.76
2018-05-08T14:44:51.857Z,16.84
2018-05-08T14:47:20.057Z,17.82
2018-05-08T14:49:48.257Z,18.35
2018-05-08T14:52:16.464Z,17.31
2018-05-08T14:54:44.692Z,17.45
2018-05-08T14:57:12.864Z,18.11
2018-05-08T14:59:41.005Z,19.86
2018-05-08T15:02:09.205Z,18.01
2018-05-08T15:04:37.354Z,18.67
2018-05-08T15:07:05.755Z,19.07
2018-05-08T15:09:33.922Z,18.83
2018-05-08T15:12:02.092Z,19.12
2018-05-08T15:14:30.273Z,17.90
2018-05-08T15:16:58.421Z,18.47
2018-05-08T15:19:26.619Z,18.76
2018-05-08T15:21:54.974Z,17.72
2018-05-08T15:24:23.042Z,18.25
2018-05-08T15:26:51.230Z,17.46
2018-05-08T15:29:19.388Z,17.73
2018-05-08T15:31:47.592Z,18.24
2018-05-08T15:34:15.761Z,18.36
2018-05-08T15:36:43.920Z,17.44
2018-05-08T15:39:12.091Z,18.27
2018-05-08T15:41:43.761Z,18.14
2018-05-08T15:44:11.961Z,17.97
2018-05-08T15:46:40.245Z,17.63
2018-05-08T15:49:08.459Z,18.96
2018-05-08T15:51:36.670Z,17.85
2018-05-08T15:54:04.916Z,18.95
2018-05-08T15:56:33.290Z,18.98
2018-05-08T15:59:01.499Z,19.70
2018-05-08T16:01:29.655Z,19.00
2018-05-08T16:03:57.841Z,19.28
2018-05-08T16:06:26.046Z,18.01
2018-05-08T16:08:54.179Z,18.32
2018-05-08T16:11:22.362Z,17.70
2018-05-08T16:13:50.528Z,16.74
2018-05-08T16:16:18.733Z,16.48
2018-05-08T16:18:46.917Z,17.01
2018-05-08T16:21:15.107Z,17.68
2018-05-08T16:23:43.298Z,17.32
2018-05-08T16:26:11.564Z,17.63
2018-05-08T16:28:39.754Z,16.91
2018-05-08T16:31:07.953Z,17.03
2018-05-08T16:33:36.125Z,16.90
2018-05-08T16:36:04.361Z,17.68
2018-05-08T16:38:32.668Z,17.77
2018-05-08T16:41:00.854Z,16.44
2018-05-08T16:43:29.036Z,18.40
2018-05-08T16:45:57.203Z,16.77
2018-05-08T16:48:31.367Z,17.26
2018-05-08T16:50:59.510Z,18.54
2018-05-08T16:53:27.696Z,19.87
2018-05-08T16:55:55.889Z,16.40
2018-05-08T16:58:24.076Z,17.04
2018-05-08T17:00:52.276Z,17.18
2018-05-08T17:03:20.509Z,16.36
2018-05-08T17:05:48.702Z,16.58
2018-05-08T17:08:16.904Z,17.88
2018-05-08T17:10:48.171Z,17.23
2018-05-08T17:13:16.401Z,17.64
2018-05-08T17:15:44.589Z,16.44
2018-05-08T17:18:12.778Z,16.89
2018-05-08T17:20:40.958Z,16.63
2018-05-08T17:23:09.147Z,17.65
2018-05-08T17:25:37.390Z,18.50
2018-05-08T17:28:05.507Z,19.14
2018-05-08T17:30:33.706Z,16.41
2018-05-08T17:33:01.911Z,16.10
2018-05-08T17:35:30.985Z,17.21
2018-05-08T17:37:59.184Z,18.41
2018-05-08T17:40:27.379Z,17.76
2018-05-08T17:42:55.607Z,17.60
2018-05-08T17:45:23.883Z,17.77
2018-05-08T17:47:52.103Z,17.26
2018-05-08T17:50:20.302Z,17.48
2018-05-08T17:52:48.540Z,18.36
2018-05-08T17:55:16.907Z,18.15
2018-05-08T17:57:45.113Z,19.40
2018-05-08T18:00:13.658Z,20.07
2018-05-08T18:02:41.837Z,21.14
2018-05-08T18:05:10.089Z,21.05
2018-05-08T18:07:38.257Z,21.28
2018-05-08T18:10:06.799Z,21.78
2018-05-08T18:12:35.075Z,21.66
2018-05-08T18:15:03.296Z,23.23
2018-05-08T18:17:31.542Z,22.45
2018-05-08T18:19:59.691Z,21.36
2018-05-08T18:22:27.890Z,23.31
2018-05-08T18:24:56.084Z,23.16
2018-05-08T18:27:24.314Z,23.67
2018-05-08T18:29:52.497Z,23.40
2018-05-08T18:32:20.734Z,23.76
2018-05-08T18:34:48.916Z,23.61
2018-05-08T18:37:17.107Z,24.21
2018-05-08T18:39:45.268Z,26.17
2018-05-08T18:42:13.492Z,24.90
2018-05-08T18:44:42.540Z,25.37
2018-05-08T18:47:10.722Z,26.22
2018-05-08T18:49:39.055Z,27.29
2018-05-08T18:52:07.638Z,26.08
2018-05-08T18:54:35.761Z,28.12
2018-05-08T18:57:04.031Z,28.45
2018-05-08T18:59:32.115Z,28.14
2018-05-08T19:02:00.323Z,29.17
2018-05-08T19:04:28.496Z,29.03
2018-05-08T19:06:56.775Z,29.58
2018-05-08T19:09:25.108Z,31.38
2018-05-08T19:11:53.429Z,30.51
2018-05-08T19:14:22.637Z,31.46
2018-05-08T19:16:50.904Z,31.55
2018-05-08T19:19:37.508Z,31.28
2018-05-08T19:22:05.657Z,31.42
2018-05-08T19:24:34.465Z,31.24
2018-05-08T19:27:02.854Z,31.44
2018-05-08T19:29:59.392Z,32.03
2018-05-08T19:32:27.579Z,32.84
2018-05-08T19:35:14.938Z,34.01
2018-05-08T19:38:10.924Z,34.20
2018-05-08T19:40:39.103Z,35.11
2018-05-08T19:43:07.333Z,34.64
2018-05-08T19:45:35.528Z,35.00
2018-05-08T19:48:03.759Z,35.22
2018-05-08T19:50:31.931Z,35.08
2018-05-08T19:53:00.217Z,35.46
2018-05-08T19:55:28.443Z,35.43
2018-05-08T19:57:56.829Z,36.17
2018-05-08T20:00:25.052Z,36.40
2018-05-08T20:02:53.255Z,36.63
2018-05-08T20:05:21.414Z,37.06
2018-05-08T20:07:49.629Z,36.18
2018-05-08T20:10:17.773Z,36.12
2018-05-08T20:12:45.959Z,37.19
2018-05-08T20:15:14.152Z,37.42
2018-05-08T20:17:42.341Z,37.90
2018-05-08T20:20:12.012Z,37.35
2018-05-08T20:22:38.707Z,36.98
2018-05-08T20:25:10.100Z,37.26
2018-05-08T20:27:38.233Z,37.74
2018-05-08T20:30:06.452Z,38.33
2018-05-08T20:32:34.607Z,37.86
2018-05-08T20:35:02.999Z,38.25
2018-05-08T20:37:31.331Z,38.50
2018-05-08T20:39:59.628Z,37.95
2018-05-08T20:42:27.785Z,38.22
2018-05-08T20:44:55.973Z,38.11
2018-05-08T20:47:24.166Z,38.16
2018-05-08T20:49:52.357Z,38.52
2018-05-08T20:52:20.568Z,38.95
2018-05-08T20:54:48.756Z,38.90
2018-05-08T20:57:16.940Z,39.10
2018-05-08T20:59:45.135Z,39.23
2018-05-08T21:02:13.306Z,39.31
2018-05-08T21:04:41.512Z,39.27
2018-05-08T21:07:09.804Z,39.25
2018-05-08T21:09:38.018Z,39.24
2018-05-08T21:12:06.208Z,39.84
2018-05-08T21:14:34.386Z,40.04
2018-05-08T21:17:02.677Z,40.24
2018-05-08T21:19:30.849Z,40.87
2018-05-08T21:21:59.887Z,40.39
2018-05-08T21:24:28.006Z,40.45
2018-05-08T21:26:56.177Z,40.20
2018-05-08T21:29:44.281Z,39.96
2018-05-08T21:32:12.481Z,40.60
2018-05-08T21:34:40.662Z,40.63
2018-05-08T21:37:08.828Z,40.75
2018-05-08T21:39:37.014Z,41.04
2018-05-08T21:42:05.194Z,40.95
2018-05-08T21:44:33.384Z,41.34
2018-05-08T21:47:01.648Z,41.93
2018-05-08T21:49:29.824Z,42.05
2018-05-08T21:51:57.996Z,42.30
2018-05-08T21:54:26.203Z,42.35
2018-05-08T21:56:59.865Z,43.02
2018-05-08T21:59:28.005Z,42.79
2018-05-08T22:01:56.195Z,43.07
2018-05-08T22:04:24.371Z,43.17
2018-05-08T22:06:52.550Z,43.51
2018-05-08T22:09:20.721Z,43.99
2018-05-08T22:11:48.867Z,43.74
2018-05-08T22:14:17.082Z,43.94
2018-05-08T22:16:45.234Z,43.87
2018-05-08T22:19:13.424Z,44.16
2018-05-08T22:21:41.587Z,43.82
2018-05-08T22:24:09.735Z,44.43
2018-05-08T22:26:37.935Z,43.74
2018-05-08T22:29:06.156Z,42.94
2018-05-08T22:31:34.320Z,43.76
2018-05-08T22:34:02.521Z,43.52
2018-05-08T22:36:30.710Z,43.97
2018-05-08T22:38:58.909Z,43.96
2018-05-08T22:41:27.068Z,44.06
2018-05-08T22:43:55.247Z,44.15
2018-05-08T22:46:23.417Z,44.27
2018-05-08T22:48:51.649Z,44.45
2018-05-08T22:51:19.821Z,44.52
2018-05-08T22:53:48.000Z,44.01
2018-05-08T22:56:16.173Z,44.15
2018-05-08T22:58:44.355Z,44.71
2018-05-08T23:01:12.573Z,43.80
2018-05-08T23:03:40.738Z,44.16
2018-05-08T23:06:08.909Z,43.78
2018-05-08T23:08:37.065Z,43.80
2018-05-08T23:11:05.244Z,44.05
2018-05-08T23:13:33.655Z,44.09
2018-05-08T23:16:02.031Z,44.36
2018-05-08T23:18:30.255Z,44.31
2018-05-08T23:20:58.439Z,44.71
2018-05-08T23:23:26.612Z,43.89
2018-05-08T23:25:54.805Z,43.82
2018-05-08T23:28:22.996Z,43.73
2018-05-08T23:30:51.175Z,44.06
2018-05-08T23:33:19.335Z,44.26
2018-05-08T23:35:47.514Z,44.46
2018-05-08T23:38:15.771Z,45.01
2018-05-08T23:40:44.075Z,44.80
2018-05-08T23:43:12.223Z,44.43
2018-05-08T23:45:40.427Z,43.83
2018-05-08T23:48:08.616Z,44.40
2018-05-08T23:50:36.776Z,44.61
2018-05-08T23:53:04.922Z,45.10
2018-05-08T23:55:33.089Z,45.31
2018-05-08T23:58:01.279Z,45.58
